Weather at Sitka Seaplane Base

Public forecast

Using degrees Fahrenheit for public forecast. Weather courtesy of forecast.io.

Closest aviation weather report (METAR) to Sitka Seaplane Base

Closest report is Sitka Rocky Gutierrez Airport, 0.6 nm (1.1 km) WSW. Retrieved 2020/09/29 12:53 UTC (1 hour ago):

PASI 291253Z 34004KT 7SM BKN100 08/06 A3017 RMK AO2 SLP215 T00830061

Closest aviation forecast (TAF) to Sitka Seaplane Base

Closest forecast is Sitka Rocky Gutierrez Airport, 0.6 nm (1.1 km) WSW. Retrieved 2020/09/29 12:30 UTC (2 hours ago):

TAF PASI 291129Z 2912/3012 VRB04KT 6SM BR FEW002 SCT060 FM291800 04006KT P6SM VCSH BKN200 FM292000 17015KT P6SM -SHRA BKN030 OVC050 WS010/10035KT FM300200 15013KT P6SM -SHRA OVC050 FM300900 10010KT P6SM FEW050 WS020/11035KT